Etusivu
METAR-TAF:

METAR-TAF

Lentoasemat :

Kamloops, Brittiläinen Kolumbia, Kanada

Leveyspiiri: 50-42N, Pituuspiiri: 120-27W, korkeus merenpinnasta: 345 m

Tämänhetkinen sää

Tämä raportti tehtiin 31 minuuttia sitten, kello 00.00 UTC
Tuuli 6 kn pohjoisesta/koillisesta
Lämpötila 17°C
Kosteus 20%
Ilmanpaine 1017 hPa
Näkyvyys: 64.4 km
Muutamia pilviä 10000 ft:n korkeudessa
Pilvistä 17000 ft:n korkeudessa

METAR: CYKA 260000Z 03006KT 40SM FEW100 OVC170 17/M06 A3004 RMK AC1AS8 AC TR SLP182 DENSITY ALT 1600FT

Aika: 17:31 (00:31 UTC)

Sääennuste

Tämä raportti tehtiin 5 tuntia ja 53 minuuttia sitten, kello 18.38 UTC
Ennuste voimassa 25. päivästä klo 19 UTC - 26. päivään klo 07 UTC
Tuuli 8 kn idästä/kaakosta
Näkyvyys: 10 km
Hajonneita pilviä 20000 ft:n korkeudessa
Tulossa
26. päivästä klo 04 UTC - 26. päivään klo 06 UTC
Tuuli 5 kn idästä

TAF: CYKA 251838Z 2519/2607 11008KT P6SM BKN200 BECMG 2604/2606 09005KT RMK NXT FCST BY 260100Z

Säähavainnot ja -ennusteet yli 4000 lentoasemalta (METAR- ja TAF-raportit).

Käytössä olevat sääasemat on merkitty karttaan keltaisilla ja punaisilla pisteillä.

Aseta hiiri pisteen päälle nähdäksesi sääaseman nimen.

Klikkaa sitten nähdäksesi säähavainnot ja -ennusteet.

Kartan vaihtaminen: klikkaa mustalla rastilla varustettuja vihreitä pisteitä, niin voit zoomata sisään; viivalla varustettua vihreää pistettä, niin voit zoomata ulos tai vihreitä nuolia, niin pääset viereisille kartoille.


METAR-TAF: